sensor_id;sensor_type;location;lat;lon;timestamp;temperature;humidity
5210;DHT22;2624;48.048;11.706;2024-02-21T00:00:25;4.50;99.90
5210;DHT22;2624;48.048;11.706;2024-02-21T00:05:26;4.60;99.90
5210;DHT22;2624;48.048;11.706;2024-02-21T00:10:29;4.60;99.90
5210;DHT22;2624;48.048;11.706;2024-02-21T00:15:32;4.80;99.90
5210;DHT22;2624;48.048;11.706;2024-02-21T00:20:34;5.00;99.90
5210;DHT22;2624;48.048;11.706;2024-02-21T00:25:37;4.70;99.90
5210;DHT22;2624;48.048;11.706;2024-02-21T00:30:39;4.70;99.90
5210;DHT22;2624;48.048;11.706;2024-02-21T00:35:41;4.80;99.90
5210;DHT22;2624;48.048;11.706;2024-02-21T00:40:44;4.60;99.90
5210;DHT22;2624;48.048;11.706;2024-02-21T00:45:45;4.80;99.90
5210;DHT22;2624;48.048;11.706;2024-02-21T00:50:48;4.30;99.90
5210;DHT22;2624;48.048;11.706;2024-02-21T00:55:51;4.40;99.90
5210;DHT22;2624;48.048;11.706;2024-02-21T01:00:52;4.40;99.90
5210;DHT22;2624;48.048;11.706;2024-02-21T01:05:54;4.10;99.90
5210;DHT22;2624;48.048;11.706;2024-02-21T01:10:57;4.10;99.90
5210;DHT22;2624;48.048;11.706;2024-02-21T01:15:59;4.20;99.90
5210;DHT22;2624;48.048;11.706;2024-02-21T01:21:01;4.10;99.90
5210;DHT22;2624;48.048;11.706;2024-02-21T01:26:04;4.20;99.90
5210;DHT22;2624;48.048;11.706;2024-02-21T01:31:08;4.60;99.90
5210;DHT22;2624;48.048;11.706;2024-02-21T01:36:10;4.80;99.90
5210;DHT22;2624;48.048;11.706;2024-02-21T01:41:13;4.40;99.90
5210;DHT22;2624;48.048;11.706;2024-02-21T01:46:17;4.30;99.90
5210;DHT22;2624;48.048;11.706;2024-02-21T01:51:19;4.30;99.90
5210;DHT22;2624;48.048;11.706;2024-02-21T01:56:22;4.80;99.90
5210;DHT22;2624;48.048;11.706;2024-02-21T02:01:25;3.90;99.90
5210;DHT22;2624;48.048;11.706;2024-02-21T02:06:27;4.40;99.90
5210;DHT22;2624;48.048;11.706;2024-02-21T02:11:32;4.60;99.90
5210;DHT22;2624;48.048;11.706;2024-02-21T02:16:34;4.30;99.90
5210;DHT22;2624;48.048;11.706;2024-02-21T02:21:39;4.20;99.90
5210;DHT22;2624;48.048;11.706;2024-02-21T02:26:45;4.10;99.90
5210;DHT22;2624;48.048;11.706;2024-02-21T02:31:47;4.00;99.90
5210;DHT22;2624;48.048;11.706;2024-02-21T02:36:49;4.00;99.90
5210;DHT22;2624;48.048;11.706;2024-02-21T02:41:52;4.20;99.90
5210;DHT22;2624;48.048;11.706;2024-02-21T02:46:54;4.00;99.90
5210;DHT22;2624;48.048;11.706;2024-02-21T02:51:55;4.00;99.90
5210;DHT22;2624;48.048;11.706;2024-02-21T02:56:58;4.10;99.90
5210;DHT22;2624;48.048;11.706;2024-02-21T03:02:00;3.90;99.90
5210;DHT22;2624;48.048;11.706;2024-02-21T03:07:02;4.10;99.90
5210;DHT22;2624;48.048;11.706;2024-02-21T03:12:06;3.90;99.90
5210;DHT22;2624;48.048;11.706;2024-02-21T03:17:08;4.00;99.90
5210;DHT22;2624;48.048;11.706;2024-02-21T03:22:10;4.20;99.90
5210;DHT22;2624;48.048;11.706;2024-02-21T03:27:13;4.00;99.90
5210;DHT22;2624;48.048;11.706;2024-02-21T03:32:14;4.10;99.90
5210;DHT22;2624;48.048;11.706;2024-02-21T03:37:16;4.20;99.90
5210;DHT22;2624;48.048;11.706;2024-02-21T03:42:20;4.30;99.90
5210;DHT22;2624;48.048;11.706;2024-02-21T03:47:22;4.20;99.90
5210;DHT22;2624;48.048;11.706;2024-02-21T03:52:23;4.20;99.90
5210;DHT22;2624;48.048;11.706;2024-02-21T03:57:27;4.30;99.90
5210;DHT22;2624;48.048;11.706;2024-02-21T04:02:29;4.30;99.90
5210;DHT22;2624;48.048;11.706;2024-02-21T04:07:30;4.10;99.90
5210;DHT22;2624;48.048;11.706;2024-02-21T04:12:33;4.10;99.90
5210;DHT22;2624;48.048;11.706;2024-02-21T04:17:44;4.10;99.90
5210;DHT22;2624;48.048;11.706;2024-02-21T04:22:46;4.10;99.90
5210;DHT22;2624;48.048;11.706;2024-02-21T04:27:47;4.20;99.90
5210;DHT22;2624;48.048;11.706;2024-02-21T04:32:50;4.20;99.90
5210;DHT22;2624;48.048;11.706;2024-02-21T04:37:52;4.00;99.90
5210;DHT22;2624;48.048;11.706;2024-02-21T04:42:54;4.10;99.90
5210;DHT22;2624;48.048;11.706;2024-02-21T04:47:57;4.20;99.90
5210;DHT22;2624;48.048;11.706;2024-02-21T04:52:59;4.00;99.90
5210;DHT22;2624;48.048;11.706;2024-02-21T04:58:01;4.10;99.90
5210;DHT22;2624;48.048;11.706;2024-02-21T05:03:04;3.80;99.90
5210;DHT22;2624;48.048;11.706;2024-02-21T05:08:06;3.70;99.90
5210;DHT22;2624;48.048;11.706;2024-02-21T05:13:08;3.90;99.90
5210;DHT22;2624;48.048;11.706;2024-02-21T05:18:11;3.70;99.90
5210;DHT22;2624;48.048;11.706;2024-02-21T05:23:13;3.40;99.90
5210;DHT22;2624;48.048;11.706;2024-02-21T05:28:15;3.40;99.90
5210;DHT22;2624;48.048;11.706;2024-02-21T05:33:18;3.30;99.90
5210;DHT22;2624;48.048;11.706;2024-02-21T05:38:21;3.20;99.90
5210;DHT22;2624;48.048;11.706;2024-02-21T05:43:23;3.20;99.90
5210;DHT22;2624;48.048;11.706;2024-02-21T05:48:26;3.40;99.90
5210;DHT22;2624;48.048;11.706;2024-02-21T05:53:28;3.30;99.90
5210;DHT22;2624;48.048;11.706;2024-02-21T05:58:30;3.20;99.90
5210;DHT22;2624;48.048;11.706;2024-02-21T06:03:33;3.30;99.90
5210;DHT22;2624;48.048;11.706;2024-02-21T06:08:35;3.10;99.90
5210;DHT22;2624;48.048;11.706;2024-02-21T06:13:38;3.00;99.90
5210;DHT22;2624;48.048;11.706;2024-02-21T06:18:42;2.90;99.90
5210;DHT22;2624;48.048;11.706;2024-02-21T06:23:44;2.90;99.90
5210;DHT22;2624;48.048;11.706;2024-02-21T06:28:45;3.10;99.90
5210;DHT22;2624;48.048;11.706;2024-02-21T06:33:49;3.50;99.90
5210;DHT22;2624;48.048;11.706;2024-02-21T06:38:50;3.70;99.90
5210;DHT22;2624;48.048;11.706;2024-02-21T06:43:52;3.40;99.90
5210;DHT22;2624;48.048;11.706;2024-02-21T06:48:56;3.00;99.90
5210;DHT22;2624;48.048;11.706;2024-02-21T06:53:57;3.10;99.90
5210;DHT22;2624;48.048;11.706;2024-02-21T06:58:59;3.20;99.90
5210;DHT22;2624;48.048;11.706;2024-02-21T07:04:02;3.30;99.90
5210;DHT22;2624;48.048;11.706;2024-02-21T07:09:04;3.10;99.90
5210;DHT22;2624;48.048;11.706;2024-02-21T07:14:06;3.10;99.90
5210;DHT22;2624;48.048;11.706;2024-02-21T07:19:09;3.20;99.90
5210;DHT22;2624;48.048;11.706;2024-02-21T07:24:11;3.30;99.90
5210;DHT22;2624;48.048;11.706;2024-02-21T07:29:12;3.40;99.90
5210;DHT22;2624;48.048;11.706;2024-02-21T07:34:16;3.50;99.90
5210;DHT22;2624;48.048;11.706;2024-02-21T07:39:17;3.50;99.90
5210;DHT22;2624;48.048;11.706;2024-02-21T07:44:19;3.60;99.90
5210;DHT22;2624;48.048;11.706;2024-02-21T07:49:22;3.60;99.90
5210;DHT22;2624;48.048;11.706;2024-02-21T07:54:24;3.60;99.90
5210;DHT22;2624;48.048;11.706;2024-02-21T07:59:26;3.70;99.90
5210;DHT22;2624;48.048;11.706;2024-02-21T08:04:29;3.80;99.90
5210;DHT22;2624;48.048;11.706;2024-02-21T08:09:30;3.80;99.90
5210;DHT22;2624;48.048;11.706;2024-02-21T08:14:32;4.00;99.90
5210;DHT22;2624;48.048;11.706;2024-02-21T08:19:35;4.00;99.90
5210;DHT22;2624;48.048;11.706;2024-02-21T08:24:37;4.00;99.90
5210;DHT22;2624;48.048;11.706;2024-02-21T08:29:39;4.10;99.90
5210;DHT22;2624;48.048;11.706;2024-02-21T08:34:42;4.20;99.90
5210;DHT22;2624;48.048;11.706;2024-02-21T08:39:44;4.30;99.90
5210;DHT22;2624;48.048;11.706;2024-02-21T08:44:46;4.40;99.90
5210;DHT22;2624;48.048;11.706;2024-02-21T08:49:49;4.80;99.90
5210;DHT22;2624;48.048;11.706;2024-02-21T08:54:50;4.90;99.90
5210;DHT22;2624;48.048;11.706;2024-02-21T08:59:54;4.90;99.90
5210;DHT22;2624;48.048;11.706;2024-02-21T09:04:57;5.10;99.90
5210;DHT22;2624;48.048;11.706;2024-02-21T09:09:58;5.70;99.90
5210;DHT22;2624;48.048;11.706;2024-02-21T09:15:01;5.80;99.90
5210;DHT22;2624;48.048;11.706;2024-02-21T09:20:05;5.90;99.90
5210;DHT22;2624;48.048;11.706;2024-02-21T09:25:08;5.90;99.90
5210;DHT22;2624;48.048;11.706;2024-02-21T09:30:12;6.40;99.90
5210;DHT22;2624;48.048;11.706;2024-02-21T09:35:16;6.60;99.90
5210;DHT22;2624;48.048;11.706;2024-02-21T09:40:18;6.70;99.90
5210;DHT22;2624;48.048;11.706;2024-02-21T09:45:21;7.00;99.90
5210;DHT22;2624;48.048;11.706;2024-02-21T09:50:24;7.20;99.90
5210;DHT22;2624;48.048;11.706;2024-02-21T09:55:28;7.30;99.90
5210;DHT22;2624;48.048;11.706;2024-02-21T10:00:32;7.60;99.90
5210;DHT22;2624;48.048;11.706;2024-02-21T10:05:36;8.30;99.90
5210;DHT22;2624;48.048;11.706;2024-02-21T10:10:43;8.40;99.90
5210;DHT22;2624;48.048;11.706;2024-02-21T10:15:44;7.60;99.90
5210;DHT22;2624;48.048;11.706;2024-02-21T10:21:01;7.50;99.90
5210;DHT22;2624;48.048;11.706;2024-02-21T10:26:08;7.50;99.90
5210;DHT22;2624;48.048;11.706;2024-02-21T10:31:10;7.70;99.90
5210;DHT22;2624;48.048;11.706;2024-02-21T10:36:14;8.40;99.90
5210;DHT22;2624;48.048;11.706;2024-02-21T10:41:16;7.70;99.90
5210;DHT22;2624;48.048;11.706;2024-02-21T10:46:22;7.60;99.90
5210;DHT22;2624;48.048;11.706;2024-02-21T10:51:28;8.40;99.90
5210;DHT22;2624;48.048;11.706;2024-02-21T10:56:32;8.40;99.90
5210;DHT22;2624;48.048;11.706;2024-02-21T11:01:35;8.60;99.90
5210;DHT22;2624;48.048;11.706;2024-02-21T11:06:40;9.20;99.90
5210;DHT22;2624;48.048;11.706;2024-02-21T11:11:44;10.10;97.30
5210;DHT22;2624;48.048;11.706;2024-02-21T11:16:46;10.40;90.40
5210;DHT22;2624;48.048;11.706;2024-02-21T11:21:50;10.80;91.90
5210;DHT22;2624;48.048;11.706;2024-02-21T11:26:51;10.60;93.70
5210;DHT22;2624;48.048;11.706;2024-02-21T11:31:54;11.10;91.00
5210;DHT22;2624;48.048;11.706;2024-02-21T11:36:57;11.00;92.50
5210;DHT22;2624;48.048;11.706;2024-02-21T11:42:03;10.90;87.20
5210;DHT22;2624;48.048;11.706;2024-02-21T11:47:06;11.60;75.20
5210;DHT22;2624;48.048;11.706;2024-02-21T11:52:09;11.40;75.30
5210;DHT22;2624;48.048;11.706;2024-02-21T11:57:11;11.40;73.40
5210;DHT22;2624;48.048;11.706;2024-02-21T12:02:14;11.00;73.00
5210;DHT22;2624;48.048;11.706;2024-02-21T12:07:17;10.90;76.60
5210;DHT22;2624;48.048;11.706;2024-02-21T12:12:20;10.50;91.40
5210;DHT22;2624;48.048;11.706;2024-02-21T12:17:22;10.60;84.10
5210;DHT22;2624;48.048;11.706;2024-02-21T12:22:25;11.20;80.10
5210;DHT22;2624;48.048;11.706;2024-02-21T12:27:27;11.40;80.70
5210;DHT22;2624;48.048;11.706;2024-02-21T12:32:29;12.10;72.30
5210;DHT22;2624;48.048;11.706;2024-02-21T12:37:32;12.30;74.10
5210;DHT22;2624;48.048;11.706;2024-02-21T12:42:34;12.30;76.80
5210;DHT22;2624;48.048;11.706;2024-02-21T12:47:36;12.60;74.30
5210;DHT22;2624;48.048;11.706;2024-02-21T12:52:40;12.50;79.20
5210;DHT22;2624;48.048;11.706;2024-02-21T12:57:42;12.40;85.30
5210;DHT22;2624;48.048;11.706;2024-02-21T13:02:44;12.00;88.90
5210;DHT22;2624;48.048;11.706;2024-02-21T13:07:48;12.30;74.30
5210;DHT22;2624;48.048;11.706;2024-02-21T13:12:50;11.50;90.90
5210;DHT22;2624;48.048;11.706;2024-02-21T13:17:52;11.30;94.00
5210;DHT22;2624;48.048;11.706;2024-02-21T13:22:55;12.10;86.90
5210;DHT22;2624;48.048;11.706;2024-02-21T13:27:57;12.20;85.30
5210;DHT22;2624;48.048;11.706;2024-02-21T13:32:59;12.10;77.70
5210;DHT22;2624;48.048;11.706;2024-02-21T13:38:03;12.10;72.70
5210;DHT22;2624;48.048;11.706;2024-02-21T13:43:05;11.80;85.50
5210;DHT22;2624;48.048;11.706;2024-02-21T13:48:07;12.10;76.80
5210;DHT22;2624;48.048;11.706;2024-02-21T13:53:13;12.00;80.10
5210;DHT22;2624;48.048;11.706;2024-02-21T13:58:15;12.50;71.40
5210;DHT22;2624;48.048;11.706;2024-02-21T14:03:18;12.40;69.70
5210;DHT22;2624;48.048;11.706;2024-02-21T14:08:22;12.40;76.70
5210;DHT22;2624;48.048;11.706;2024-02-21T14:13:24;12.40;71.00
5210;DHT22;2624;48.048;11.706;2024-02-21T14:18:26;12.50;69.20
5210;DHT22;2624;48.048;11.706;2024-02-21T14:23:29;12.50;71.60
5210;DHT22;2624;48.048;11.706;2024-02-21T14:28:31;12.40;73.80
5210;DHT22;2624;48.048;11.706;2024-02-21T14:33:34;12.30;67.20
5210;DHT22;2624;48.048;11.706;2024-02-21T14:38:37;12.20;73.60
5210;DHT22;2624;48.048;11.706;2024-02-21T14:43:39;12.10;81.50
5210;DHT22;2624;48.048;11.706;2024-02-21T14:48:41;12.20;69.90
5210;DHT22;2624;48.048;11.706;2024-02-21T14:53:44;12.20;70.00
5210;DHT22;2624;48.048;11.706;2024-02-21T14:58:47;12.20;71.10
5210;DHT22;2624;48.048;11.706;2024-02-21T15:03:48;12.10;71.10
5210;DHT22;2624;48.048;11.706;2024-02-21T15:08:53;12.10;71.00
5210;DHT22;2624;48.048;11.706;2024-02-21T15:13:54;12.10;71.60
5210;DHT22;2624;48.048;11.706;2024-02-21T15:18:56;12.10;76.20
5210;DHT22;2624;48.048;11.706;2024-02-21T15:23:59;12.00;73.10
5210;DHT22;2624;48.048;11.706;2024-02-21T15:29:02;11.90;71.20
5210;DHT22;2624;48.048;11.706;2024-02-21T15:34:05;11.80;70.70
5210;DHT22;2624;48.048;11.706;2024-02-21T15:39:08;11.80;73.90
5210;DHT22;2624;48.048;11.706;2024-02-21T15:44:11;11.70;74.30
5210;DHT22;2624;48.048;11.706;2024-02-21T15:49:13;11.60;74.30
5210;DHT22;2624;48.048;11.706;2024-02-21T15:54:16;11.60;74.80
5210;DHT22;2624;48.048;11.706;2024-02-21T15:59:18;11.50;75.20
5210;DHT22;2624;48.048;11.706;2024-02-21T16:04:20;11.40;76.70
5210;DHT22;2624;48.048;11.706;2024-02-21T16:09:24;11.30;78.10
5210;DHT22;2624;48.048;11.706;2024-02-21T16:14:29;11.20;86.40
5210;DHT22;2624;48.048;11.706;2024-02-21T16:19:30;11.10;90.10
5210;DHT22;2624;48.048;11.706;2024-02-21T16:24:34;11.00;92.40
5210;DHT22;2624;48.048;11.706;2024-02-21T16:29:36;10.80;94.50
5210;DHT22;2624;48.048;11.706;2024-02-21T16:34:40;10.60;95.30
5210;DHT22;2624;48.048;11.706;2024-02-21T16:39:43;10.60;95.50
5210;DHT22;2624;48.048;11.706;2024-02-21T16:44:45;10.60;95.60
5210;DHT22;2624;48.048;11.706;2024-02-21T16:49:48;10.60;95.70
5210;DHT22;2624;48.048;11.706;2024-02-21T16:54:51;10.70;96.30
5210;DHT22;2624;48.048;11.706;2024-02-21T16:59:53;10.60;96.40
5210;DHT22;2624;48.048;11.706;2024-02-21T17:04:55;10.60;96.80
5210;DHT22;2624;48.048;11.706;2024-02-21T17:09:58;10.50;97.30
5210;DHT22;2624;48.048;11.706;2024-02-21T17:15:01;10.40;97.30
5210;DHT22;2624;48.048;11.706;2024-02-21T17:20:03;10.20;97.80
5210;DHT22;2624;48.048;11.706;2024-02-21T17:25:07;10.10;98.20
5210;DHT22;2624;48.048;11.706;2024-02-21T17:30:11;10.00;98.40
5210;DHT22;2624;48.048;11.706;2024-02-21T17:35:13;9.80;99.10
5210;DHT22;2624;48.048;11.706;2024-02-21T17:40:17;9.80;99.30
5210;DHT22;2624;48.048;11.706;2024-02-21T17:45:19;9.90;99.60
5210;DHT22;2624;48.048;11.706;2024-02-21T17:50:21;9.80;99.70
5210;DHT22;2624;48.048;11.706;2024-02-21T17:55:24;9.70;99.70
5210;DHT22;2624;48.048;11.706;2024-02-21T18:00:26;9.60;99.90
5210;DHT22;2624;48.048;11.706;2024-02-21T18:05:30;9.40;99.90
5210;DHT22;2624;48.048;11.706;2024-02-21T18:10:33;9.20;99.90
5210;DHT22;2624;48.048;11.706;2024-02-21T18:15:38;9.40;99.90
5210;DHT22;2624;48.048;11.706;2024-02-21T18:20:40;9.20;99.90
5210;DHT22;2624;48.048;11.706;2024-02-21T18:25:43;9.10;99.90
5210;DHT22;2624;48.048;11.706;2024-02-21T18:30:46;8.90;99.90
5210;DHT22;2624;48.048;11.706;2024-02-21T18:35:48;8.90;99.90
5210;DHT22;2624;48.048;11.706;2024-02-21T18:40:52;9.00;99.90
5210;DHT22;2624;48.048;11.706;2024-02-21T18:45:54;8.90;99.90
5210;DHT22;2624;48.048;11.706;2024-02-21T18:50:56;8.90;99.90
5210;DHT22;2624;48.048;11.706;2024-02-21T18:55:59;9.10;99.90
5210;DHT22;2624;48.048;11.706;2024-02-21T19:01:01;8.70;99.90
5210;DHT22;2624;48.048;11.706;2024-02-21T19:06:04;8.50;99.90
5210;DHT22;2624;48.048;11.706;2024-02-21T19:11:07;8.50;99.90
5210;DHT22;2624;48.048;11.706;2024-02-21T19:16:08;8.60;99.90
5210;DHT22;2624;48.048;11.706;2024-02-21T19:21:11;8.30;99.90
5210;DHT22;2624;48.048;11.706;2024-02-21T19:26:14;8.50;99.90
5210;DHT22;2624;48.048;11.706;2024-02-21T19:31:16;8.30;99.90
5210;DHT22;2624;48.048;11.706;2024-02-21T19:36:18;8.30;99.90
5210;DHT22;2624;48.048;11.706;2024-02-21T19:41:21;8.30;99.90
5210;DHT22;2624;48.048;11.706;2024-02-21T19:46:23;8.40;99.90
5210;DHT22;2624;48.048;11.706;2024-02-21T19:51:25;8.60;99.90
5210;DHT22;2624;48.048;11.706;2024-02-21T19:56:28;8.50;99.90
5210;DHT22;2624;48.048;11.706;2024-02-21T20:01:30;8.10;99.90
5210;DHT22;2624;48.048;11.706;2024-02-21T20:06:31;8.10;99.90
5210;DHT22;2624;48.048;11.706;2024-02-21T20:11:35;8.00;99.90
5210;DHT22;2624;48.048;11.706;2024-02-21T20:16:36;8.10;99.90
5210;DHT22;2624;48.048;11.706;2024-02-21T20:21:38;8.00;99.90
5210;DHT22;2624;48.048;11.706;2024-02-21T20:26:43;8.00;99.90
5210;DHT22;2624;48.048;11.706;2024-02-21T20:31:45;8.10;99.90
5210;DHT22;2624;48.048;11.706;2024-02-21T20:36:47;8.30;99.90
5210;DHT22;2624;48.048;11.706;2024-02-21T20:41:50;8.50;99.90
5210;DHT22;2624;48.048;11.706;2024-02-21T20:46:52;8.20;99.90
5210;DHT22;2624;48.048;11.706;2024-02-21T20:51:54;7.90;99.90
5210;DHT22;2624;48.048;11.706;2024-02-21T20:56:57;8.20;99.90
5210;DHT22;2624;48.048;11.706;2024-02-21T21:01:58;8.10;99.90
5210;DHT22;2624;48.048;11.706;2024-02-21T21:07:00;8.10;99.90
5210;DHT22;2624;48.048;11.706;2024-02-21T21:12:04;8.10;99.90
5210;DHT22;2624;48.048;11.706;2024-02-21T21:17:06;8.10;99.90
5210;DHT22;2624;48.048;11.706;2024-02-21T21:22:08;8.10;99.90
5210;DHT22;2624;48.048;11.706;2024-02-21T21:27:11;8.40;99.90
5210;DHT22;2624;48.048;11.706;2024-02-21T21:32:16;8.10;99.90
5210;DHT22;2624;48.048;11.706;2024-02-21T21:37:18;8.00;99.90
5210;DHT22;2624;48.048;11.706;2024-02-21T21:42:22;7.90;99.90
5210;DHT22;2624;48.048;11.706;2024-02-21T21:47:24;8.00;99.90
5210;DHT22;2624;48.048;11.706;2024-02-21T21:52:25;7.90;99.90
5210;DHT22;2624;48.048;11.706;2024-02-21T21:57:29;8.00;99.90
5210;DHT22;2624;48.048;11.706;2024-02-21T22:02:31;8.10;99.90
5210;DHT22;2624;48.048;11.706;2024-02-21T22:07:32;8.20;99.90
5210;DHT22;2624;48.048;11.706;2024-02-21T22:12:36;8.20;99.90
5210;DHT22;2624;48.048;11.706;2024-02-21T22:17:37;7.90;99.90
5210;DHT22;2624;48.048;11.706;2024-02-21T22:22:40;7.80;99.90
5210;DHT22;2624;48.048;11.706;2024-02-21T22:27:43;8.00;99.90
5210;DHT22;2624;48.048;11.706;2024-02-21T22:32:45;7.90;99.90
5210;DHT22;2624;48.048;11.706;2024-02-21T22:37:47;8.00;99.90
5210;DHT22;2624;48.048;11.706;2024-02-21T22:42:50;8.30;99.90
5210;DHT22;2624;48.048;11.706;2024-02-21T22:47:52;8.10;99.90
5210;DHT22;2624;48.048;11.706;2024-02-21T22:52:54;8.00;99.90
5210;DHT22;2624;48.048;11.706;2024-02-21T22:57:57;8.10;99.90
5210;DHT22;2624;48.048;11.706;2024-02-21T23:02:59;7.90;99.90
5210;DHT22;2624;48.048;11.706;2024-02-21T23:08:01;7.70;99.90
5210;DHT22;2624;48.048;11.706;2024-02-21T23:13:05;7.80;99.90
5210;DHT22;2624;48.048;11.706;2024-02-21T23:18:07;7.80;99.90
5210;DHT22;2624;48.048;11.706;2024-02-21T23:23:09;7.60;99.90
5210;DHT22;2624;48.048;11.706;2024-02-21T23:28:13;7.70;99.90
5210;DHT22;2624;48.048;11.706;2024-02-21T23:33:15;7.60;99.90
5210;DHT22;2624;48.048;11.706;2024-02-21T23:38:16;7.50;99.90
5210;DHT22;2624;48.048;11.706;2024-02-21T23:43:20;7.50;99.90
5210;DHT22;2624;48.048;11.706;2024-02-21T23:48:21;7.50;99.90
5210;DHT22;2624;48.048;11.706;2024-02-21T23:53:23;7.30;99.90
5210;DHT22;2624;48.048;11.706;2024-02-21T23:58:27;7.60;99.90
